Time;durP1;ratioP1;P1;durP2;ratioP2;P2;SDS_P1;SDS_P2;PMS_P1;PMS_P2;Temp;Humidity;BMP_temperature;BMP_pressure;BME280_temperature;BME280_humidity;BME280_pressure;Samples;Min_cycle;Max_cycle;Signal;HPM_P1;HPM_P2
2021/07/17 07:49:15;;;;;;;49.53;19.80;;;19.50;99.90;;;;;;12238010;27;20460;-61
2021/07/17 07:55:02;;;;;;;34.67;16.30;;;19.80;99.90;;;;;;12191749;27;20054;-60
2021/07/17 08:00:49;;;;;;;30.90;15.93;;;20.50;99.90;;;;;;12189612;28;20127;-61
2021/07/17 08:06:37;;;;;;;37.30;16.08;;;21.10;99.90;;;;;;12189443;27;20085;-60
2021/07/17 08:12:24;;;;;;;33.42;15.02;;;21.20;99.90;;;;;;12191581;27;20043;-61
2021/07/17 08:18:11;;;;;;;39.15;17.85;;;21.50;99.90;;;;;;12187770;28;20407;-62
2021/07/17 08:23:59;;;;;;;35.72;15.15;;;21.70;99.90;;;;;;12190432;27;20039;-60
2021/07/17 08:29:46;;;;;;;40.13;16.38;;;21.80;99.90;;;;;;12189005;27;20055;-62
2021/07/17 08:35:33;;;;;;;31.80;16.45;;;22.00;99.90;;;;;;12190496;27;20058;-62
2021/07/17 08:41:26;;;;;;;32.92;14.93;;;22.10;99.90;;;;;;12188291;27;20036;-62
2021/07/17 08:47:14;;;;;;;34.95;16.00;;;22.30;99.90;;;;;;12188303;27;20533;-62
2021/07/17 08:53:01;;;;;;;29.77;14.27;;;22.30;99.90;;;;;;12187749;27;20054;-62
2021/07/17 08:58:50;;;;;;;33.58;15.30;;;22.50;99.90;;;;;;12165506;28;20058;-62
2021/07/17 09:04:37;;;;;;;31.27;13.98;;;22.80;99.90;;;;;;12152828;28;20044;-60
2021/07/17 09:10:29;;;;;;;28.85;14.38;;;23.10;99.90;;;;;;12152294;28;20048;-61
2021/07/17 09:16:18;;;;;;;38.75;15.68;;;23.40;99.90;;;;;;12153965;27;20047;-60
2021/07/17 09:22:05;;;;;;;35.97;16.45;;;23.30;99.90;;;;;;12152100;28;20667;-60
2021/07/17 09:27:51;;;;;;;33.97;17.02;;;23.20;99.90;;;;;;12153548;28;20055;-60
2021/07/17 09:33:40;;;;;;;37.90;15.82;;;23.30;99.90;;;;;;12154590;28;20039;-61
2021/07/17 09:39:29;;;;;;;37.47;15.65;;;23.40;99.90;;;;;;12152601;28;20047;-61
2021/07/17 09:45:35;;;;;;;29.98;15.02;;;23.20;99.90;;;;;;12152002;28;20051;-61
2021/07/17 09:51:26;;;;;;;32.00;15.43;;;23.20;99.90;;;;;;12153520;27;20063;-61
2021/07/17 09:57:12;;;;;;;32.13;16.13;;;22.90;99.90;;;;;;12153112;28;20036;-61
2021/07/17 10:03:02;;;;;;;32.03;13.65;;;23.00;99.90;;;;;;12150660;28;20486;-61
2021/07/17 10:08:50;;;;;;;32.38;14.00;;;23.20;99.90;;;;;;12151587;28;20456;-61
2021/07/17 10:14:39;;;;;;;33.22;15.02;;;23.40;99.90;;;;;;12148620;28;20047;-61
2021/07/17 10:20:26;;;;;;;27.15;13.02;;;23.30;99.90;;;;;;12149509;28;20515;-62
2021/07/17 10:26:15;;;;;;;29.58;13.30;;;23.40;99.90;;;;;;12150296;28;20044;-62
2021/07/17 10:32:02;;;;;;;38.15;14.20;;;23.20;99.90;;;;;;12150244;27;20090;-61
2021/07/17 10:37:50;;;;;;;31.98;13.68;;;23.40;99.90;;;;;;12149350;28;20047;-61
2021/07/17 10:43:38;;;;;;;26.23;13.65;;;23.60;99.90;;;;;;12149881;28;20070;-61
2021/07/17 10:49:35;;;;;;;31.55;13.98;;;23.70;99.90;;;;;;12149526;28;20058;-62
2021/07/17 10:55:30;;;;;;;34.88;14.25;;;23.60;99.90;;;;;;12150468;28;20052;-62
2021/07/17 11:01:19;;;;;;;29.02;12.95;;;23.70;99.90;;;;;;12149424;28;20530;-61
2021/07/17 11:07:40;;;;;;;41.47;13.95;;;23.70;99.90;;;;;;12148890;28;20040;-61
2021/07/17 11:13:43;;;;;;;31.70;13.25;;;23.70;99.90;;;;;;12148135;28;20766;-62
2021/07/17 11:19:31;;;;;;;28.92;13.90;;;23.90;99.90;;;;;;12149758;28;20104;-61
2021/07/17 11:25:18;;;;;;;29.20;14.38;;;23.90;99.90;;;;;;12148116;28;21107;-62
2021/07/17 11:31:39;;;;;;;26.77;13.80;;;24.00;99.90;;;;;;12148237;28;20099;-61
2021/07/17 11:37:29;;;;;;;25.63;13.07;;;24.10;99.90;;;;;;12148010;28;20055;-61
2021/07/17 11:43:15;;;;;;;28.13;13.60;;;24.10;99.90;;;;;;12149778;28;20055;-62
2021/07/17 11:49:03;;;;;;;30.40;13.68;;;24.10;99.90;;;;;;12146799;28;21140;-63
2021/07/17 11:54:55;;;;;;;29.98;14.07;;;24.00;99.90;;;;;;12148216;28;20039;-62
2021/07/17 12:00:42;;;;;;;30.05;14.73;;;24.10;99.90;;;;;;12148259;28;20511;-62
2021/07/17 12:06:29;;;;;;;26.42;13.60;;;24.20;99.90;;;;;;12146624;28;20044;-62
2021/07/17 12:12:23;;;;;;;27.25;13.38;;;24.30;99.90;;;;;;12148801;28;21271;-61
2021/07/17 12:18:12;;;;;;;30.02;13.55;;;24.70;99.90;;;;;;12147066;28;20104;-61
2021/07/17 12:23:59;;;;;;;32.00;13.50;;;24.90;99.60;;;;;;12147189;28;20124;-62
2021/07/17 12:30:03;;;;;;;30.80;12.57;;;25.10;98.50;;;;;;12146973;28;20051;-62
2021/07/17 12:35:52;;;;;;;33.65;13.23;;;25.40;99.70;;;;;;12155818;28;20142;-62
2021/07/17 12:41:39;;;;;;;29.02;12.63;;;25.40;97.20;;;;;;12158183;28;20089;-62
2021/07/17 12:47:27;;;;;;;33.67;12.82;;;25.00;97.70;;;;;;12155427;28;20058;-61
2021/07/17 12:53:15;;;;;;;30.27;13.25;;;25.20;98.50;;;;;;12156951;28;20048;-61
2021/07/17 12:59:07;;;;;;;26.65;13.23;;;25.40;97.70;;;;;;12155569;28;20474;-62
2021/07/17 13:04:55;;;;;;;28.93;13.53;;;25.50;97.60;;;;;;12153596;28;20040;-61
2021/07/17 13:10:42;;;;;;;35.92;15.80;;;25.50;97.40;;;;;;12156438;28;20047;-62
2021/07/17 13:16:32;;;;;;;33.70;14.57;;;25.60;97.50;;;;;;12154876;27;20062;-62
2021/07/17 13:22:20;;;;;;;39.05;15.75;;;25.80;97.20;;;;;;12152930;27;20047;-61
2021/07/17 13:28:10;;;;;;;31.58;15.15;;;26.00;96.10;;;;;;12154359;28;20060;-61
2021/07/17 13:34:11;;;;;;;28.77;14.18;;;25.90;95.90;;;;;;12153353;28;20116;-62
2021/07/17 13:40:11;;;;;;;28.10;14.73;;;25.50;97.30;;;;;;12153257;28;20101;-62
2021/07/17 13:46:02;;;;;;;31.55;15.10;;;25.60;96.90;;;;;;12153521;28;20051;-61
2021/07/17 13:51:48;;;;;;;28.83;14.25;;;25.70;97.30;;;;;;12153643;27;20050;-61
2021/07/17 13:57:42;;;;;;;30.80;13.60;;;25.80;97.60;;;;;;12150316;28;20048;-61
2021/07/17 14:03:31;;;;;;;27.05;13.85;;;26.10;97.00;;;;;;12154511;28;20040;-61
2021/07/17 14:09:19;;;;;;;32.83;13.80;;;26.30;96.60;;;;;;12152763;28;20088;-61
2021/07/17 14:15:09;;;;;;;31.30;14.50;;;26.00;96.60;;;;;;12153288;28;20066;-62
2021/07/17 14:20:56;;;;;;;26.23;12.30;;;26.50;96.90;;;;;;12150837;28;20048;-62
2021/07/17 14:26:43;;;;;;;27.95;13.55;;;26.70;96.70;;;;;;12149788;28;20530;-61
2021/07/17 14:32:31;;;;;;;24.08;12.48;;;26.80;95.10;;;;;;12152413;28;20443;-62
2021/07/17 14:38:19;;;;;;;25.35;11.60;;;27.10;94.90;;;;;;12148258;28;20435;-61
2021/07/17 14:44:06;;;;;;;25.10;13.10;;;27.50;95.40;;;;;;12149112;28;20043;-61
2021/07/17 14:49:55;;;;;;;23.92;12.15;;;27.40;93.80;;;;;;12150154;28;20188;-60
2021/07/17 14:55:44;;;;;;;28.17;12.45;;;27.00;93.70;;;;;;12148267;28;20052;-60
2021/07/17 15:01:31;;;;;;;24.60;12.23;;;27.10;94.50;;;;;;12148688;28;20127;-61
2021/07/17 15:07:19;;;;;;;27.75;13.25;;;27.30;93.60;;;;;;12149751;28;20050;-61
2021/07/17 15:19:08;;;;;;;24.10;12.32;;;27.40;93.60;;;;;;12148370;28;20043;-61
2021/07/17 15:24:57;;;;;;;27.52;12.80;;;27.60;93.40;;;;;;12150352;28;20074;-60
2021/07/17 15:30:45;;;;;;;23.75;12.77;;;27.80;92.40;;;;;;12148872;28;20043;-60
2021/07/17 15:36:31;;;;;;;26.08;13.25;;;27.80;91.70;;;;;;12146432;28;20044;-61
2021/07/17 15:42:20;;;;;;;27.00;12.10;;;28.00;91.70;;;;;;12149420;28;20415;-61
2021/07/17 15:48:07;;;;;;;21.25;11.13;;;28.10;91.30;;;;;;12147935;28;20056;-61
2021/07/17 15:53:54;;;;;;;21.70;11.77;;;29.00;90.50;;;;;;12148271;28;20070;-61
2021/07/17 15:59:42;;;;;;;21.83;10.85;;;29.90;85.50;;;;;;12148545;28;20046;-61
2021/07/17 16:05:29;;;;;;;18.27;10.32;;;31.30;81.10;;;;;;12147491;28;20526;-61
2021/07/17 16:11:17;;;;;;;19.83;9.48;;;32.60;75.40;;;;;;12156865;28;20122;-61
2021/07/17 16:17:05;;;;;;;14.95;8.65;;;33.40;70.00;;;;;;12153794;28;20047;-62
2021/07/17 16:22:52;;;;;;;16.30;8.75;;;33.60;66.50;;;;;;12157187;28;20100;-61
2021/07/17 16:28:39;;;;;;;13.98;7.70;;;33.40;66.70;;;;;;12156830;28;20059;-62
2021/07/17 16:34:27;;;;;;;14.52;8.38;;;34.30;64.00;;;;;;12156436;28;20526;-62
2021/07/17 16:40:16;;;;;;;14.45;7.25;;;34.60;62.20;;;;;;12157243;27;20088;-62
2021/07/17 16:46:03;;;;;;;13.88;6.78;;;35.40;59.10;;;;;;12155458;28;20423;-62
2021/07/17 16:51:51;;;;;;;8.73;5.95;;;36.20;58.70;;;;;;12157803;28;20055;-62
2021/07/17 16:57:40;;;;;;;10.68;5.88;;;37.00;56.10;;;;;;12157318;28;20050;-60
2021/07/17 17:03:27;;;;;;;9.40;6.15;;;37.70;55.00;;;;;;12155023;28;20043;-60
2021/07/17 17:09:15;;;;;;;12.05;5.68;;;38.40;52.70;;;;;;12154879;27;20051;-61
2021/07/17 17:15:02;;;;;;;8.65;5.65;;;38.50;51.90;;;;;;12156293;27;20043;-61
2021/07/17 17:20:49;;;;;;;12.18;6.13;;;39.20;50.00;;;;;;12153875;28;20424;-61
2021/07/17 17:26:40;;;;;;;12.43;6.47;;;39.70;49.10;;;;;;12153121;27;20053;-62
2021/07/17 17:32:27;;;;;;;10.90;5.65;;;39.70;48.80;;;;;;12153702;28;20043;-61
2021/07/17 17:38:15;;;;;;;9.65;5.40;;;39.90;48.60;;;;;;12156574;28;20039;-62
2021/07/17 17:44:03;;;;;;;10.63;5.97;;;39.90;47.80;;;;;;12154905;28;20040;-61
2021/07/17 17:49:50;;;;;;;14.48;5.75;;;39.80;47.60;;;;;;12153157;27;20048;-59
2021/07/17 17:55:37;;;;;;;13.65;5.55;;;39.90;47.40;;;;;;12154256;28;20040;-62
2021/07/17 18:01:25;;;;;;;10.18;5.85;;;39.70;47.90;;;;;;12154071;28;20431;-62
2021/07/17 18:07:12;;;;;;;8.80;5.30;;;39.60;47.80;;;;;;12152358;28;20036;-61
2021/07/17 18:12:59;;;;;;;9.70;5.20;;;39.50;47.80;;;;;;12151156;28;20040;-61
2021/07/17 18:18:47;;;;;;;8.10;4.85;;;39.20;48.20;;;;;;12149257;28;20486;-62
2021/07/17 18:24:37;;;;;;;10.15;5.13;;;38.80;48.50;;;;;;12152277;28;20052;-61
2021/07/17 18:30:25;;;;;;;12.75;8.05;;;38.50;48.70;;;;;;12150273;28;20043;-61
2021/07/17 18:36:13;;;;;;;10.55;6.00;;;38.00;49.80;;;;;;12150786;28;20108;-62
2021/07/17 18:42:00;;;;;;;14.65;8.55;;;37.50;50.10;;;;;;12151733;28;20044;-61
2021/07/17 18:47:47;;;;;;;9.45;5.50;;;36.90;51.10;;;;;;12150389;28;20051;-60
2021/07/17 18:53:36;;;;;;;14.40;7.57;;;36.40;51.90;;;;;;12151123;28;20571;-61
2021/07/17 18:59:23;;;;;;;11.60;7.50;;;35.70;53.60;;;;;;12150689;28;20044;-61
2021/07/17 19:05:10;;;;;;;15.50;7.53;;;34.90;54.80;;;;;;12151849;28;20482;-61
2021/07/17 19:10:59;;;;;;;13.02;7.63;;;33.90;56.70;;;;;;12148615;27;20603;-60
2021/07/17 19:16:46;;;;;;;12.63;7.30;;;32.30;59.50;;;;;;12148398;27;20047;-60
2021/07/17 19:22:33;;;;;;;12.82;7.40;;;31.10;64.30;;;;;;12151928;28;20055;-60
2021/07/17 19:28:22;;;;;;;12.73;8.10;;;30.30;67.70;;;;;;12149358;28;20036;-60
2021/07/17 19:34:08;;;;;;;13.75;7.63;;;29.50;68.80;;;;;;12147928;28;20063;-62
2021/07/17 19:39:55;;;;;;;15.52;8.38;;;29.00;71.00;;;;;;12146332;28;20043;-60
2021/07/17 19:45:44;;;;;;;14.80;7.93;;;28.60;71.70;;;;;;12146726;28;20048;-60
2021/07/17 19:51:31;;;;;;;18.42;10.13;;;28.30;73.20;;;;;;12147249;28;20047;-61
2021/07/17 19:57:19;;;;;;;20.88;11.00;;;28.10;74.90;;;;;;12146346;28;20070;-61
2021/07/17 20:03:08;;;;;;;13.75;7.63;;;27.80;75.40;;;;;;12146237;28;20048;-60
2021/07/17 20:08:54;;;;;;;16.17;7.95;;;27.60;76.50;;;;;;12147475;28;20092;-60
2021/07/17 20:14:41;;;;;;;28.92;16.83;;;27.50;78.10;;;;;;12147695;28;20416;-60
2021/07/17 20:20:31;;;;;;;16.42;8.15;;;27.40;79.90;;;;;;12146926;28;20078;-60
2021/07/17 20:26:20;;;;;;;14.48;8.38;;;27.10;79.40;;;;;;12146635;28;20046;-59
2021/07/17 20:32:08;;;;;;;15.15;8.38;;;27.00;80.30;;;;;;12148346;28;20059;-60
2021/07/17 20:37:56;;;;;;;16.20;7.78;;;27.00;80.40;;;;;;12148614;28;20044;-59
2021/07/17 20:43:43;;;;;;;18.00;8.80;;;26.90;81.90;;;;;;12146915;28;20135;-60
2021/07/17 20:49:32;;;;;;;13.77;8.05;;;26.80;82.60;;;;;;12146744;28;20441;-60
2021/07/17 20:55:21;;;;;;;15.32;7.90;;;26.70;82.80;;;;;;12152038;28;20043;-60
2021/07/17 21:01:08;;;;;;;14.63;8.90;;;26.60;84.50;;;;;;12154709;27;20523;-60
2021/07/17 21:06:55;;;;;;;17.73;9.18;;;26.50;85.30;;;;;;12154475;28;20062;-60
2021/07/17 21:12:43;;;;;;;25.70;17.35;;;26.40;86.00;;;;;;12155711;27;20063;-61
2021/07/17 21:18:30;;;;;;;15.52;7.95;;;26.20;87.00;;;;;;12156439;28;20063;-61
2021/07/17 21:24:17;;;;;;;15.82;9.10;;;26.10;87.90;;;;;;12153732;28;20129;-60
2021/07/17 21:30:09;;;;;;;14.25;8.18;;;26.10;89.00;;;;;;12152846;28;20040;-62
2021/07/17 21:35:56;;;;;;;14.15;7.88;;;26.00;88.90;;;;;;12155777;27;20040;-61
2021/07/17 21:41:42;;;;;;;16.80;8.00;;;26.00;88.70;;;;;;12154102;28;20055;-61
2021/07/17 21:47:31;;;;;;;14.88;6.85;;;26.00;89.00;;;;;;12152379;28;20054;-61
2021/07/17 21:53:18;;;;;;;15.80;7.35;;;26.00;89.20;;;;;;12155662;28;20535;-61
2021/07/17 21:59:05;;;;;;;9.88;6.00;;;25.90;89.80;;;;;;12166921;28;20419;-62
2021/07/17 22:04:53;;;;;;;11.07;5.03;;;25.70;89.60;;;;;;12164948;28;20051;-61
2021/07/17 22:10:41;;;;;;;7.57;4.55;;;25.60;90.00;;;;;;12153119;28;21284;-61
2021/07/17 22:16:28;;;;;;;9.68;4.90;;;25.50;90.20;;;;;;12151464;28;20047;-61
2021/07/17 22:22:18;;;;;;;10.15;4.70;;;25.60;90.40;;;;;;12153057;28;20067;-60
2021/07/17 22:28:05;;;;;;;10.43;4.50;;;25.70;90.40;;;;;;12151092;28;20040;-60
2021/07/17 22:33:52;;;;;;;8.25;4.70;;;25.70;90.40;;;;;;12152113;28;20065;-61
